sensor_id;sensor_type;location;lat;lon;timestamp;P1;durP1;ratioP1;P2;durP2;ratioP2
40322;SDS011;26030;51.164;17.100;2023-08-06T00:03:23;1.40;;;1.00;;
40322;SDS011;26030;51.164;17.100;2023-08-06T00:08:28;1.30;;;1.20;;
40322;SDS011;26030;51.164;17.100;2023-08-06T00:13:32;1.30;;;1.20;;
40322;SDS011;26030;51.164;17.100;2023-08-06T00:18:36;0.90;;;0.90;;
40322;SDS011;26030;51.164;17.100;2023-08-06T00:23:41;1.10;;;1.00;;
40322;SDS011;26030;51.164;17.100;2023-08-06T00:28:45;1.20;;;1.10;;
40322;SDS011;26030;51.164;17.100;2023-08-06T00:33:49;1.20;;;1.10;;
40322;SDS011;26030;51.164;17.100;2023-08-06T00:38:54;1.00;;;1.00;;
40322;SDS011;26030;51.164;17.100;2023-08-06T00:43:59;1.00;;;1.00;;
40322;SDS011;26030;51.164;17.100;2023-08-06T00:49:04;1.00;;;1.00;;
40322;SDS011;26030;51.164;17.100;2023-08-06T00:54:18;1.10;;;1.00;;
40322;SDS011;26030;51.164;17.100;2023-08-06T00:59:25;1.40;;;1.00;;
40322;SDS011;26030;51.164;17.100;2023-08-06T01:04:30;1.30;;;1.20;;
40322;SDS011;26030;51.164;17.100;2023-08-06T01:09:35;1.20;;;1.10;;
40322;SDS011;26030;51.164;17.100;2023-08-06T01:14:59;1.50;;;1.10;;
40322;SDS011;26030;51.164;17.100;2023-08-06T01:20:05;1.20;;;1.00;;
40322;SDS011;26030;51.164;17.100;2023-08-06T01:25:10;0.90;;;0.90;;
40322;SDS011;26030;51.164;17.100;2023-08-06T01:30:25;1.00;;;0.90;;
40322;SDS011;26030;51.164;17.100;2023-08-06T01:35:31;0.80;;;0.80;;
40322;SDS011;26030;51.164;17.100;2023-08-06T01:40:36;0.90;;;0.90;;
40322;SDS011;26030;51.164;17.100;2023-08-06T01:45:42;0.80;;;0.80;;
40322;SDS011;26030;51.164;17.100;2023-08-06T01:50:47;1.10;;;0.90;;
40322;SDS011;26030;51.164;17.100;2023-08-06T01:55:51;0.80;;;0.80;;
40322;SDS011;26030;51.164;17.100;2023-08-06T02:00:55;0.90;;;0.90;;
40322;SDS011;26030;51.164;17.100;2023-08-06T02:06:00;1.70;;;0.90;;
40322;SDS011;26030;51.164;17.100;2023-08-06T02:11:04;1.60;;;1.00;;
40322;SDS011;26030;51.164;17.100;2023-08-06T02:16:10;1.00;;;0.80;;
40322;SDS011;26030;51.164;17.100;2023-08-06T02:21:14;0.70;;;0.70;;
40322;SDS011;26030;51.164;17.100;2023-08-06T02:26:19;2.20;;;0.80;;
40322;SDS011;26030;51.164;17.100;2023-08-06T02:31:23;0.90;;;0.90;;
40322;SDS011;26030;51.164;17.100;2023-08-06T02:36:28;0.80;;;0.80;;
40322;SDS011;26030;51.164;17.100;2023-08-06T02:41:34;0.80;;;0.70;;
40322;SDS011;26030;51.164;17.100;2023-08-06T02:46:38;0.90;;;0.70;;
40322;SDS011;26030;51.164;17.100;2023-08-06T02:51:45;0.70;;;0.70;;
40322;SDS011;26030;51.164;17.100;2023-08-06T02:56:49;0.80;;;0.80;;
40322;SDS011;26030;51.164;17.100;2023-08-06T03:01:59;3.40;;;0.90;;
40322;SDS011;26030;51.164;17.100;2023-08-06T03:07:11;1.10;;;1.00;;
40322;SDS011;26030;51.164;17.100;2023-08-06T03:12:25;1.10;;;0.80;;
40322;SDS011;26030;51.164;17.100;2023-08-06T03:17:30;1.00;;;0.80;;
40322;SDS011;26030;51.164;17.100;2023-08-06T03:22:34;0.80;;;0.80;;
40322;SDS011;26030;51.164;17.100;2023-08-06T03:27:39;1.30;;;1.20;;
40322;SDS011;26030;51.164;17.100;2023-08-06T03:32:43;0.70;;;0.70;;
40322;SDS011;26030;51.164;17.100;2023-08-06T03:37:48;0.60;;;0.60;;
40322;SDS011;26030;51.164;17.100;2023-08-06T03:42:53;0.70;;;0.70;;
40322;SDS011;26030;51.164;17.100;2023-08-06T03:47:58;0.80;;;0.80;;
40322;SDS011;26030;51.164;17.100;2023-08-06T03:53:02;0.90;;;0.80;;
40322;SDS011;26030;51.164;17.100;2023-08-06T03:58:07;0.80;;;0.70;;
40322;SDS011;26030;51.164;17.100;2023-08-06T04:03:11;2.80;;;0.90;;
40322;SDS011;26030;51.164;17.100;2023-08-06T04:08:16;0.90;;;0.90;;
40322;SDS011;26030;51.164;17.100;2023-08-06T04:13:23;1.10;;;0.50;;
40322;SDS011;26030;51.164;17.100;2023-08-06T04:18:27;2.60;;;0.70;;
40322;SDS011;26030;51.164;17.100;2023-08-06T04:23:31;1.10;;;0.70;;
40322;SDS011;26030;51.164;17.100;2023-08-06T04:28:40;0.60;;;0.50;;
40322;SDS011;26030;51.164;17.100;2023-08-06T04:33:44;0.60;;;0.60;;
40322;SDS011;26030;51.164;17.100;2023-08-06T04:38:52;0.60;;;0.60;;
40322;SDS011;26030;51.164;17.100;2023-08-06T04:43:59;0.60;;;0.60;;
40322;SDS011;26030;51.164;17.100;2023-08-06T04:49:07;1.00;;;0.80;;
40322;SDS011;26030;51.164;17.100;2023-08-06T04:54:15;0.50;;;0.50;;
40322;SDS011;26030;51.164;17.100;2023-08-06T04:59:19;8.00;;;0.80;;
40322;SDS011;26030;51.164;17.100;2023-08-06T05:04:23;0.70;;;0.70;;
40322;SDS011;26030;51.164;17.100;2023-08-06T05:09:27;1.00;;;0.70;;
40322;SDS011;26030;51.164;17.100;2023-08-06T05:14:32;0.90;;;0.90;;
40322;SDS011;26030;51.164;17.100;2023-08-06T05:19:36;0.70;;;0.70;;
40322;SDS011;26030;51.164;17.100;2023-08-06T05:24:40;2.20;;;0.40;;
40322;SDS011;26030;51.164;17.100;2023-08-06T05:29:45;0.50;;;0.50;;
40322;SDS011;26030;51.164;17.100;2023-08-06T05:34:49;1.10;;;0.50;;
40322;SDS011;26030;51.164;17.100;2023-08-06T05:39:53;0.60;;;0.50;;
40322;SDS011;26030;51.164;17.100;2023-08-06T05:44:57;0.60;;;0.60;;
40322;SDS011;26030;51.164;17.100;2023-08-06T05:50:02;0.90;;;0.60;;
40322;SDS011;26030;51.164;17.100;2023-08-06T05:55:06;1.20;;;0.50;;
40322;SDS011;26030;51.164;17.100;2023-08-06T06:00:11;1.50;;;0.40;;
40322;SDS011;26030;51.164;17.100;2023-08-06T06:05:16;0.80;;;0.40;;
40322;SDS011;26030;51.164;17.100;2023-08-06T06:10:20;2.50;;;0.60;;
40322;SDS011;26030;51.164;17.100;2023-08-06T06:15:24;0.60;;;0.50;;
40322;SDS011;26030;51.164;17.100;2023-08-06T06:20:28;1.00;;;0.70;;
40322;SDS011;26030;51.164;17.100;2023-08-06T06:25:32;0.60;;;0.50;;
40322;SDS011;26030;51.164;17.100;2023-08-06T06:30:36;0.80;;;0.50;;
40322;SDS011;26030;51.164;17.100;2023-08-06T06:35:41;0.40;;;0.40;;
40322;SDS011;26030;51.164;17.100;2023-08-06T06:40:56;0.40;;;0.40;;
40322;SDS011;26030;51.164;17.100;2023-08-06T06:46:00;1.30;;;0.50;;
40322;SDS011;26030;51.164;17.100;2023-08-06T06:51:04;0.50;;;0.50;;
40322;SDS011;26030;51.164;17.100;2023-08-06T06:56:09;0.50;;;0.50;;
40322;SDS011;26030;51.164;17.100;2023-08-06T07:01:13;0.60;;;0.40;;
40322;SDS011;26030;51.164;17.100;2023-08-06T07:06:17;0.50;;;0.50;;
40322;SDS011;26030;51.164;17.100;2023-08-06T07:11:22;0.50;;;0.50;;
40322;SDS011;26030;51.164;17.100;2023-08-06T07:16:26;0.40;;;0.40;;
40322;SDS011;26030;51.164;17.100;2023-08-06T07:21:31;1.80;;;0.50;;
40322;SDS011;26030;51.164;17.100;2023-08-06T07:26:36;0.60;;;0.30;;
40322;SDS011;26030;51.164;17.100;2023-08-06T07:31:40;1.00;;;0.40;;
40322;SDS011;26030;51.164;17.100;2023-08-06T07:36:46;4.90;;;0.80;;
40322;SDS011;26030;51.164;17.100;2023-08-06T07:41:50;2.30;;;0.50;;
40322;SDS011;26030;51.164;17.100;2023-08-06T07:46:55;4.30;;;0.50;;
40322;SDS011;26030;51.164;17.100;2023-08-06T07:52:03;3.50;;;0.40;;
40322;SDS011;26030;51.164;17.100;2023-08-06T07:57:07;2.00;;;0.60;;
40322;SDS011;26030;51.164;17.100;2023-08-06T08:02:11;6.00;;;0.40;;
40322;SDS011;26030;51.164;17.100;2023-08-06T08:07:15;3.90;;;0.40;;
40322;SDS011;26030;51.164;17.100;2023-08-06T08:12:20;6.10;;;0.50;;
40322;SDS011;26030;51.164;17.100;2023-08-06T08:17:25;2.70;;;0.40;;
40322;SDS011;26030;51.164;17.100;2023-08-06T08:22:32;3.00;;;0.50;;
40322;SDS011;26030;51.164;17.100;2023-08-06T08:27:36;4.90;;;0.60;;
40322;SDS011;26030;51.164;17.100;2023-08-06T08:32:41;4.00;;;0.50;;
40322;SDS011;26030;51.164;17.100;2023-08-06T08:37:46;6.30;;;0.70;;
40322;SDS011;26030;51.164;17.100;2023-08-06T08:42:51;2.20;;;0.90;;
40322;SDS011;26030;51.164;17.100;2023-08-06T08:47:58;3.90;;;1.50;;
40322;SDS011;26030;51.164;17.100;2023-08-06T08:53:02;8.30;;;1.30;;
40322;SDS011;26030;51.164;17.100;2023-08-06T08:58:09;8.20;;;1.70;;
40322;SDS011;26030;51.164;17.100;2023-08-06T09:03:17;4.50;;;1.40;;
40322;SDS011;26030;51.164;17.100;2023-08-06T09:08:29;3.70;;;1.30;;
40322;SDS011;26030;51.164;17.100;2023-08-06T09:13:37;4.90;;;1.60;;
40322;SDS011;26030;51.164;17.100;2023-08-06T09:18:41;6.10;;;1.40;;
40322;SDS011;26030;51.164;17.100;2023-08-06T09:23:46;5.40;;;1.00;;
40322;SDS011;26030;51.164;17.100;2023-08-06T09:28:52;5.70;;;1.20;;
40322;SDS011;26030;51.164;17.100;2023-08-06T09:33:59;5.80;;;1.40;;
40322;SDS011;26030;51.164;17.100;2023-08-06T09:39:13;4.70;;;1.30;;
40322;SDS011;26030;51.164;17.100;2023-08-06T09:44:19;5.30;;;1.30;;
40322;SDS011;26030;51.164;17.100;2023-08-06T09:49:28;2.10;;;1.30;;
40322;SDS011;26030;51.164;17.100;2023-08-06T09:54:45;5.40;;;2.00;;
40322;SDS011;26030;51.164;17.100;2023-08-06T09:59:52;5.00;;;1.40;;
40322;SDS011;26030;51.164;17.100;2023-08-06T10:04:57;10.10;;;2.00;;
40322;SDS011;26030;51.164;17.100;2023-08-06T10:10:03;13.80;;;2.70;;
40322;SDS011;26030;51.164;17.100;2023-08-06T10:15:10;11.40;;;2.30;;
40322;SDS011;26030;51.164;17.100;2023-08-06T10:20:14;11.00;;;3.00;;
40322;SDS011;26030;51.164;17.100;2023-08-06T10:25:19;11.50;;;3.20;;
40322;SDS011;26030;51.164;17.100;2023-08-06T10:30:31;13.20;;;2.90;;
40322;SDS011;26030;51.164;17.100;2023-08-06T10:35:44;33.10;;;3.20;;
40322;SDS011;26030;51.164;17.100;2023-08-06T10:40:49;11.80;;;3.00;;
40322;SDS011;26030;51.164;17.100;2023-08-06T10:45:58;10.40;;;2.60;;
40322;SDS011;26030;51.164;17.100;2023-08-06T10:51:03;12.40;;;2.60;;
40322;SDS011;26030;51.164;17.100;2023-08-06T10:56:15;9.90;;;2.50;;
40322;SDS011;26030;51.164;17.100;2023-08-06T11:01:21;9.50;;;3.90;;
40322;SDS011;26030;51.164;17.100;2023-08-06T11:06:26;11.50;;;3.40;;
40322;SDS011;26030;51.164;17.100;2023-08-06T11:11:31;13.00;;;3.60;;
40322;SDS011;26030;51.164;17.100;2023-08-06T11:16:36;9.60;;;2.90;;
40322;SDS011;26030;51.164;17.100;2023-08-06T11:21:40;6.90;;;3.00;;
40322;SDS011;26030;51.164;17.100;2023-08-06T11:26:47;12.30;;;3.00;;
40322;SDS011;26030;51.164;17.100;2023-08-06T11:31:52;11.30;;;3.60;;
40322;SDS011;26030;51.164;17.100;2023-08-06T11:36:56;15.90;;;3.30;;
40322;SDS011;26030;51.164;17.100;2023-08-06T11:42:03;9.20;;;3.00;;
40322;SDS011;26030;51.164;17.100;2023-08-06T11:47:12;12.90;;;2.90;;
40322;SDS011;26030;51.164;17.100;2023-08-06T11:52:19;10.00;;;2.40;;
40322;SDS011;26030;51.164;17.100;2023-08-06T11:57:23;13.70;;;3.10;;
40322;SDS011;26030;51.164;17.100;2023-08-06T12:02:31;11.20;;;2.60;;
40322;SDS011;26030;51.164;17.100;2023-08-06T12:07:40;9.40;;;2.60;;
40322;SDS011;26030;51.164;17.100;2023-08-06T12:12:44;6.50;;;2.20;;
40322;SDS011;26030;51.164;17.100;2023-08-06T12:17:48;7.30;;;1.90;;
40322;SDS011;26030;51.164;17.100;2023-08-06T12:22:52;8.30;;;2.20;;
40322;SDS011;26030;51.164;17.100;2023-08-06T12:27:56;7.00;;;2.40;;
40322;SDS011;26030;51.164;17.100;2023-08-06T12:33:01;6.60;;;2.90;;
40322;SDS011;26030;51.164;17.100;2023-08-06T12:38:06;5.60;;;2.00;;
40322;SDS011;26030;51.164;17.100;2023-08-06T12:43:10;8.30;;;2.20;;
40322;SDS011;26030;51.164;17.100;2023-08-06T12:48:14;4.40;;;1.90;;
40322;SDS011;26030;51.164;17.100;2023-08-06T12:53:19;4.10;;;1.60;;
40322;SDS011;26030;51.164;17.100;2023-08-06T12:58:27;6.00;;;2.00;;
40322;SDS011;26030;51.164;17.100;2023-08-06T13:03:32;4.90;;;2.00;;
40322;SDS011;26030;51.164;17.100;2023-08-06T13:08:36;3.50;;;1.80;;
40322;SDS011;26030;51.164;17.100;2023-08-06T13:13:41;5.90;;;2.10;;
40322;SDS011;26030;51.164;17.100;2023-08-06T13:18:46;3.80;;;1.70;;
40322;SDS011;26030;51.164;17.100;2023-08-06T13:23:51;4.00;;;1.20;;
40322;SDS011;26030;51.164;17.100;2023-08-06T13:28:57;2.70;;;1.60;;
40322;SDS011;26030;51.164;17.100;2023-08-06T13:34:02;4.70;;;1.60;;
40322;SDS011;26030;51.164;17.100;2023-08-06T13:39:07;2.80;;;1.50;;
40322;SDS011;26030;51.164;17.100;2023-08-06T13:44:12;3.20;;;1.50;;
40322;SDS011;26030;51.164;17.100;2023-08-06T13:49:18;4.70;;;1.60;;
40322;SDS011;26030;51.164;17.100;2023-08-06T13:54:27;3.10;;;1.40;;
40322;SDS011;26030;51.164;17.100;2023-08-06T13:59:31;4.90;;;1.60;;
40322;SDS011;26030;51.164;17.100;2023-08-06T14:04:37;3.60;;;1.60;;
40322;SDS011;26030;51.164;17.100;2023-08-06T14:09:42;8.70;;;2.10;;
40322;SDS011;26030;51.164;17.100;2023-08-06T14:14:48;7.30;;;1.70;;
40322;SDS011;26030;51.164;17.100;2023-08-06T14:19:52;8.70;;;1.90;;
40322;SDS011;26030;51.164;17.100;2023-08-06T14:25:00;13.20;;;1.60;;
40322;SDS011;26030;51.164;17.100;2023-08-06T14:30:08;7.70;;;1.40;;
40322;SDS011;26030;51.164;17.100;2023-08-06T14:35:13;6.10;;;1.90;;
40322;SDS011;26030;51.164;17.100;2023-08-06T14:40:19;6.20;;;2.00;;
40322;SDS011;26030;51.164;17.100;2023-08-06T14:45:26;3.10;;;1.70;;
40322;SDS011;26030;51.164;17.100;2023-08-06T14:50:31;8.30;;;1.80;;
40322;SDS011;26030;51.164;17.100;2023-08-06T14:55:37;4.40;;;1.70;;
40322;SDS011;26030;51.164;17.100;2023-08-06T15:00:42;2.80;;;1.90;;
40322;SDS011;26030;51.164;17.100;2023-08-06T15:05:53;28.40;;;6.20;;
40322;SDS011;26030;51.164;17.100;2023-08-06T15:10:57;23.20;;;7.30;;
40322;SDS011;26030;51.164;17.100;2023-08-06T15:16:06;18.30;;;5.30;;
40322;SDS011;26030;51.164;17.100;2023-08-06T15:21:11;20.40;;;5.00;;
40322;SDS011;26030;51.164;17.100;2023-08-06T15:26:16;15.40;;;5.00;;
40322;SDS011;26030;51.164;17.100;2023-08-06T15:31:24;14.50;;;4.50;;
40322;SDS011;26030;51.164;17.100;2023-08-06T15:36:40;14.10;;;4.00;;
40322;SDS011;26030;51.164;17.100;2023-08-06T15:41:45;13.80;;;3.40;;
40322;SDS011;26030;51.164;17.100;2023-08-06T15:46:49;10.40;;;3.90;;
40322;SDS011;26030;51.164;17.100;2023-08-06T15:51:56;7.90;;;3.40;;
40322;SDS011;26030;51.164;17.100;2023-08-06T15:57:01;6.10;;;3.10;;
40322;SDS011;26030;51.164;17.100;2023-08-06T16:02:07;7.80;;;2.70;;
40322;SDS011;26030;51.164;17.100;2023-08-06T16:07:13;6.30;;;2.60;;
40322;SDS011;26030;51.164;17.100;2023-08-06T16:12:19;4.70;;;2.40;;
40322;SDS011;26030;51.164;17.100;2023-08-06T16:17:25;4.20;;;2.10;;
40322;SDS011;26030;51.164;17.100;2023-08-06T16:22:33;4.40;;;2.30;;
40322;SDS011;26030;51.164;17.100;2023-08-06T16:27:38;8.10;;;2.20;;
40322;SDS011;26030;51.164;17.100;2023-08-06T16:32:44;9.10;;;2.20;;
40322;SDS011;26030;51.164;17.100;2023-08-06T16:37:49;14.30;;;2.00;;
40322;SDS011;26030;51.164;17.100;2023-08-06T16:42:54;7.60;;;2.00;;
40322;SDS011;26030;51.164;17.100;2023-08-06T16:47:59;2.90;;;1.80;;
40322;SDS011;26030;51.164;17.100;2023-08-06T16:53:04;9.80;;;1.90;;
40322;SDS011;26030;51.164;17.100;2023-08-06T16:58:09;3.10;;;1.80;;
40322;SDS011;26030;51.164;17.100;2023-08-06T17:03:23;4.60;;;2.10;;
40322;SDS011;26030;51.164;17.100;2023-08-06T17:08:31;4.90;;;2.00;;
40322;SDS011;26030;51.164;17.100;2023-08-06T17:13:39;3.90;;;2.00;;
40322;SDS011;26030;51.164;17.100;2023-08-06T17:18:44;2.60;;;1.70;;
40322;SDS011;26030;51.164;17.100;2023-08-06T17:23:50;3.10;;;1.80;;
40322;SDS011;26030;51.164;17.100;2023-08-06T17:28:55;2.40;;;1.80;;
40322;SDS011;26030;51.164;17.100;2023-08-06T17:34:02;2.60;;;2.40;;
40322;SDS011;26030;51.164;17.100;2023-08-06T17:39:07;3.20;;;1.60;;
40322;SDS011;26030;51.164;17.100;2023-08-06T17:44:13;5.80;;;1.60;;
40322;SDS011;26030;51.164;17.100;2023-08-06T17:49:18;10.30;;;1.80;;
40322;SDS011;26030;51.164;17.100;2023-08-06T17:54:23;1.60;;;1.50;;
40322;SDS011;26030;51.164;17.100;2023-08-06T17:59:29;5.10;;;1.50;;
40322;SDS011;26030;51.164;17.100;2023-08-06T18:04:35;5.90;;;1.60;;
40322;SDS011;26030;51.164;17.100;2023-08-06T18:09:40;3.80;;;1.70;;
40322;SDS011;26030;51.164;17.100;2023-08-06T18:14:46;4.70;;;1.60;;
40322;SDS011;26030;51.164;17.100;2023-08-06T18:19:50;4.80;;;1.40;;
40322;SDS011;26030;51.164;17.100;2023-08-06T18:24:55;2.80;;;1.50;;
40322;SDS011;26030;51.164;17.100;2023-08-06T18:30:02;2.10;;;1.40;;
40322;SDS011;26030;51.164;17.100;2023-08-06T18:35:08;2.00;;;1.50;;
40322;SDS011;26030;51.164;17.100;2023-08-06T18:40:13;1.50;;;1.20;;
40322;SDS011;26030;51.164;17.100;2023-08-06T18:45:20;1.80;;;1.60;;
40322;SDS011;26030;51.164;17.100;2023-08-06T18:50:26;4.40;;;1.60;;
40322;SDS011;26030;51.164;17.100;2023-08-06T18:55:31;2.80;;;1.70;;
40322;SDS011;26030;51.164;17.100;2023-08-06T19:00:40;1.80;;;1.50;;
40322;SDS011;26030;51.164;17.100;2023-08-06T19:05:45;6.00;;;1.50;;
40322;SDS011;26030;51.164;17.100;2023-08-06T19:10:51;2.40;;;1.70;;
40322;SDS011;26030;51.164;17.100;2023-08-06T19:15:59;2.90;;;1.30;;
40322;SDS011;26030;51.164;17.100;2023-08-06T19:21:04;2.70;;;1.50;;
40322;SDS011;26030;51.164;17.100;2023-08-06T19:26:10;2.90;;;1.40;;
40322;SDS011;26030;51.164;17.100;2023-08-06T19:31:15;2.60;;;1.80;;
40322;SDS011;26030;51.164;17.100;2023-08-06T19:36:21;1.30;;;1.20;;
40322;SDS011;26030;51.164;17.100;2023-08-06T19:41:27;2.30;;;1.50;;
40322;SDS011;26030;51.164;17.100;2023-08-06T19:46:32;1.50;;;1.20;;
40322;SDS011;26030;51.164;17.100;2023-08-06T19:51:39;2.90;;;1.70;;
40322;SDS011;26030;51.164;17.100;2023-08-06T19:56:45;5.20;;;1.50;;
40322;SDS011;26030;51.164;17.100;2023-08-06T20:01:50;5.70;;;1.80;;
40322;SDS011;26030;51.164;17.100;2023-08-06T20:06:57;3.30;;;1.40;;
40322;SDS011;26030;51.164;17.100;2023-08-06T20:12:02;6.00;;;1.50;;
40322;SDS011;26030;51.164;17.100;2023-08-06T20:17:07;3.20;;;2.10;;
40322;SDS011;26030;51.164;17.100;2023-08-06T20:22:13;4.60;;;2.30;;
40322;SDS011;26030;51.164;17.100;2023-08-06T20:27:19;8.00;;;2.10;;
40322;SDS011;26030;51.164;17.100;2023-08-06T20:32:23;3.70;;;1.40;;
40322;SDS011;26030;51.164;17.100;2023-08-06T20:37:31;6.10;;;1.80;;
40322;SDS011;26030;51.164;17.100;2023-08-06T20:42:37;4.30;;;1.70;;
40322;SDS011;26030;51.164;17.100;2023-08-06T20:47:42;7.10;;;1.90;;
40322;SDS011;26030;51.164;17.100;2023-08-06T20:52:47;3.00;;;1.90;;
40322;SDS011;26030;51.164;17.100;2023-08-06T20:57:51;4.80;;;2.00;;
40322;SDS011;26030;51.164;17.100;2023-08-06T21:02:56;3.00;;;1.80;;
40322;SDS011;26030;51.164;17.100;2023-08-06T21:08:00;2.20;;;1.80;;
40322;SDS011;26030;51.164;17.100;2023-08-06T21:13:07;4.60;;;1.60;;
40322;SDS011;26030;51.164;17.100;2023-08-06T21:18:11;4.00;;;1.60;;
40322;SDS011;26030;51.164;17.100;2023-08-06T21:23:15;2.80;;;1.60;;
40322;SDS011;26030;51.164;17.100;2023-08-06T21:28:21;5.30;;;1.80;;
40322;SDS011;26030;51.164;17.100;2023-08-06T21:33:29;2.60;;;1.60;;
40322;SDS011;26030;51.164;17.100;2023-08-06T21:38:35;6.20;;;1.70;;
40322;SDS011;26030;51.164;17.100;2023-08-06T21:43:48;2.00;;;1.80;;
40322;SDS011;26030;51.164;17.100;2023-08-06T21:48:52;5.20;;;1.90;;
40322;SDS011;26030;51.164;17.100;2023-08-06T21:53:57;2.50;;;1.50;;
40322;SDS011;26030;51.164;17.100;2023-08-06T21:59:01;3.00;;;1.70;;
40322;SDS011;26030;51.164;17.100;2023-08-06T22:04:06;3.40;;;1.60;;
40322;SDS011;26030;51.164;17.100;2023-08-06T22:09:10;4.20;;;1.80;;
40322;SDS011;26030;51.164;17.100;2023-08-06T22:14:16;3.40;;;1.70;;
40322;SDS011;26030;51.164;17.100;2023-08-06T22:19:20;3.20;;;1.40;;
40322;SDS011;26030;51.164;17.100;2023-08-06T22:24:25;1.70;;;1.30;;
40322;SDS011;26030;51.164;17.100;2023-08-06T22:29:29;3.40;;;1.50;;
40322;SDS011;26030;51.164;17.100;2023-08-06T22:34:33;3.50;;;1.70;;
40322;SDS011;26030;51.164;17.100;2023-08-06T22:39:38;4.50;;;1.60;;
40322;SDS011;26030;51.164;17.100;2023-08-06T22:44:43;3.70;;;1.60;;
40322;SDS011;26030;51.164;17.100;2023-08-06T22:49:47;3.00;;;1.40;;
40322;SDS011;26030;51.164;17.100;2023-08-06T22:54:52;2.30;;;2.00;;
40322;SDS011;26030;51.164;17.100;2023-08-06T23:00:17;2.70;;;1.50;;
40322;SDS011;26030;51.164;17.100;2023-08-06T23:05:21;3.00;;;1.30;;
40322;SDS011;26030;51.164;17.100;2023-08-06T23:10:26;1.60;;;1.40;;
40322;SDS011;26030;51.164;17.100;2023-08-06T23:15:31;1.30;;;1.20;;
40322;SDS011;26030;51.164;17.100;2023-08-06T23:20:35;3.80;;;1.60;;
40322;SDS011;26030;51.164;17.100;2023-08-06T23:25:39;1.30;;;1.20;;
40322;SDS011;26030;51.164;17.100;2023-08-06T23:30:44;3.10;;;1.50;;
40322;SDS011;26030;51.164;17.100;2023-08-06T23:35:53;3.80;;;1.30;;
40322;SDS011;26030;51.164;17.100;2023-08-06T23:40:57;1.70;;;1.30;;
40322;SDS011;26030;51.164;17.100;2023-08-06T23:46:02;3.00;;;1.90;;
40322;SDS011;26030;51.164;17.100;2023-08-06T23:51:06;2.20;;;1.30;;
40322;SDS011;26030;51.164;17.100;2023-08-06T23:56:10;3.30;;;1.50;;
